Aeroporto :
LOGIN :

Iscrizione | Disclaimer

   EN    FR    IT 

 










Sommario :    VFR   VFR Marginale   IFR   IFR Intensivo   IFR Molto Intensivo
Visibilità : 
Base nubi : 
>= 8 km
>= 3000ft
5 / 8 km
1000 / 3000 ft
1500m / 5 km
500 / 1000 ft
800 / 1500m
200 / 500 ft
< 800m
< 200 ft
Simboli :   Temporali  Nebbia  Neve Forte  Precipitazioni Forti  Vento > 20 kt
SIGMETs :   Varie  Temporali  Ghiacco  Turbolenza  Onda orograficha  Ceneri Vulcaniche







- Altitudine del aeroporto : 157 ft
- Codice IATA : LIL
- Carte del aeroporto


LFQQ - Lille Lesquin

ULTIMO METAR :
  • 161100Z AUTO 16006KT CAVOK 10/05 Q1026 NOSIG

METARs OBSOLETI :
  • 161030Z AUTO 15006KT CAVOK 09/04 Q1026 NOSIG
  • 161000Z AUTO 16006KT CAVOK 08/04 Q1026 NOSIG
  • 160930Z AUTO 16004KT 9000 NSC 07/04 Q1026 NOSIG
  • 160900Z AUTO VRB02KT 8000 NSC 06/03 Q1026 NOSIG
  • 160830Z AUTO VRB02KT 7000 NSC 04/03 Q1026 NOSIG

TAF TAF LFQQ
Valido dal 16 a 06 ore il 17 a 12 ore UTC


160500Z 1606/1712 17006KT 4000 BR NSC
BECMG 1606/1608 CAVOK
TEMPO 1701/1706 4000 BR
ATIS : +33 3 20 16 19 54
Nessun NOTAM noto per questo aeroporto.



MetMap, La meteo Aeronautica in un colpo d'occhio ! - Copyright ORBIFLY Dicembre 2007 - Disclaimer

ORBIFLY MET'MAP TEAM :

Programmazione e sviluppo : Alexandra Zaïnal
Concezione e sviluppo : Baudouin d'Aumeries
Co-Programmazione e sviluppo : Marc-Olivier Méhu
Supporto tecnico e logistico : Manuel Goepfert
Aiuto per la traduzione : Arnaldo La Scala

Contatto : metmap@orbifly.com




FONTI E CREDITI :

   NOAA